createdAt,value
2023-03-02T00:03:35.228Z,12.13
2023-03-02T00:08:38.312Z,11.98
2023-03-02T00:13:40.173Z,12.32
2023-03-02T00:18:42.139Z,11.73
2023-03-02T00:23:44.718Z,11.95
2023-03-02T00:28:46.759Z,11.05
2023-03-02T00:33:48.514Z,12.32
2023-03-02T00:38:52.385Z,11.32
2023-03-02T00:43:54.355Z,12.63
2023-03-02T00:48:56.149Z,13.23
2023-03-02T00:53:57.914Z,11.95
2023-03-02T00:59:26.486Z,12.15
2023-03-02T01:04:34.532Z,13.65
2023-03-02T01:09:37.079Z,12.55
2023-03-02T01:14:40.190Z,12.07
2023-03-02T01:19:43.102Z,11.52
2023-03-02T01:24:44.965Z,11.90
2023-03-02T01:29:46.992Z,10.95
2023-03-02T01:34:48.820Z,12.82
2023-03-02T01:39:51.392Z,11.57
2023-03-02T01:44:57.213Z,13.18
2023-03-02T01:50:12.094Z,11.50
2023-03-02T01:55:19.068Z,11.40
2023-03-02T02:00:24.835Z,12.07
2023-03-02T02:05:28.200Z,12.10
2023-03-02T02:10:31.981Z,12.40
2023-03-02T02:15:33.967Z,10.20
2023-03-02T02:20:44.958Z,11.90
2023-03-02T02:25:53.215Z,11.77
2023-03-02T02:31:11.051Z,11.15
2023-03-02T02:36:25.265Z,11.02
2023-03-02T02:41:33.597Z,12.38
2023-03-02T02:46:35.776Z,11.68
2023-03-02T02:51:37.718Z,11.80
2023-03-02T02:56:40.606Z,10.50
2023-03-02T03:01:43.240Z,10.27
2023-03-02T03:06:54.795Z,11.27
2023-03-02T03:12:01.647Z,9.77
2023-03-02T03:17:03.538Z,10.02
2023-03-02T03:22:05.436Z,10.27
2023-03-02T03:27:09.713Z,10.10
2023-03-02T03:32:11.556Z,10.48
2023-03-02T03:37:17.017Z,10.65
2023-03-02T03:42:19.014Z,9.40
2023-03-02T03:47:20.803Z,10.57
2023-03-02T03:52:30.572Z,9.75
2023-03-02T03:57:32.506Z,7.45
2023-03-02T04:02:34.417Z,9.93
2023-03-02T04:07:37.394Z,8.93
2023-03-02T04:12:41.479Z,9.80
2023-03-02T04:17:44.951Z,9.15
2023-03-02T04:22:48.858Z,9.23
2023-03-02T04:27:52.274Z,9.18
2023-03-02T04:32:55.063Z,8.68
2023-03-02T04:37:57.083Z,8.93
2023-03-02T04:42:58.900Z,8.57
2023-03-02T04:48:00.678Z,8.27
2023-03-02T04:53:02.619Z,9.10
2023-03-02T04:58:04.752Z,9.00
2023-03-02T05:03:06.845Z,8.45
2023-03-02T05:08:08.687Z,7.90
2023-03-02T05:13:10.484Z,8.43
2023-03-02T05:18:13.359Z,8.60
2023-03-02T05:23:25.243Z,8.32
2023-03-02T05:28:28.052Z,8.43
2023-03-02T05:33:30.504Z,8.10
2023-03-02T05:38:32.285Z,8.60
2023-03-02T05:43:34.146Z,8.70
2023-03-02T05:48:36.060Z,8.43
2023-03-02T05:53:37.934Z,8.75
2023-03-02T05:58:39.751Z,8.30
2023-03-02T06:03:41.549Z,9.52
2023-03-02T06:08:44.285Z,8.35
2023-03-02T06:13:46.230Z,9.27
2023-03-02T06:18:48.004Z,8.57
2023-03-02T06:23:49.808Z,9.80
2023-03-02T06:28:53.762Z,8.75
2023-03-02T06:33:55.899Z,8.85
2023-03-02T06:38:57.688Z,8.80
2023-03-02T06:44:02.259Z,8.75
2023-03-02T06:49:04.496Z,8.40
2023-03-02T06:54:08.309Z,9.25
2023-03-02T06:59:10.199Z,8.45
2023-03-02T07:04:11.995Z,9.00
2023-03-02T07:09:14.335Z,8.93
2023-03-02T07:14:16.152Z,9.02
2023-03-02T07:19:18.193Z,8.25
2023-03-02T07:24:19.992Z,9.48
2023-03-02T07:29:21.782Z,9.48
2023-03-02T07:34:25.066Z,9.20
2023-03-02T07:39:26.836Z,8.52
2023-03-02T07:44:28.963Z,8.80
2023-03-02T07:49:30.788Z,9.52
2023-03-02T07:54:32.582Z,8.43
2023-03-02T07:59:34.423Z,8.88
2023-03-02T08:04:36.319Z,9.13
2023-03-02T08:09:41.267Z,8.27
2023-03-02T08:14:43.089Z,7.57
2023-03-02T08:19:44.966Z,8.88
2023-03-02T08:24:46.842Z,7.70
2023-03-02T08:29:48.768Z,7.43
2023-03-02T08:34:51.854Z,8.10
2023-03-02T08:39:53.704Z,7.43
2023-03-02T08:44:55.504Z,7.45
2023-03-02T08:49:57.347Z,7.63
2023-03-02T08:54:59.182Z,7.40
2023-03-02T09:00:01.040Z,8.75
2023-03-02T09:05:02.796Z,7.25
2023-03-02T09:10:04.968Z,8.13
2023-03-02T09:15:07.397Z,8.65
2023-03-02T09:20:10.155Z,7.95
2023-03-02T09:25:11.945Z,9.23
2023-03-02T09:30:15.231Z,7.93
2023-03-02T09:35:17.069Z,8.73
2023-03-02T09:40:24.588Z,9.38
2023-03-02T09:45:29.232Z,7.70
2023-03-02T09:50:48.873Z,8.80
2023-03-02T09:55:59.036Z,8.75
2023-03-02T10:01:05.018Z,6.75
2023-03-02T10:06:06.940Z,8.85
2023-03-02T10:11:18.300Z,8.85
2023-03-02T10:16:30.870Z,8.65
2023-03-02T10:21:57.346Z,9.23
2023-03-02T10:27:20.636Z,8.85
2023-03-02T10:32:27.711Z,9.13
2023-03-02T10:37:31.083Z,9.52
2023-03-02T10:42:38.000Z,9.30
2023-03-02T10:47:39.817Z,9.85
2023-03-02T10:52:59.720Z,9.05
2023-03-02T11:03:21.835Z,9.27
2023-03-02T11:08:26.139Z,10.13
2023-03-02T11:13:36.973Z,10.50
2023-03-02T11:23:57.640Z,10.18
2023-03-02T11:29:14.720Z,9.82
2023-03-02T11:34:51.816Z,9.25
2023-03-02T11:40:23.720Z,10.02
2023-03-02T11:45:32.591Z,8.77
2023-03-02T11:50:44.066Z,10.52
2023-03-02T11:55:51.070Z,10.18
2023-03-02T12:00:54.702Z,9.98
2023-03-02T12:06:01.791Z,9.50
2023-03-02T12:11:29.617Z,10.68
2023-03-02T12:16:43.537Z,11.50
2023-03-02T12:22:10.696Z,9.95
2023-03-02T12:27:15.633Z,10.27
2023-03-02T12:32:30.478Z,10.25
2023-03-02T12:38:03.142Z,9.90
2023-03-02T12:43:24.106Z,11.07
2023-03-02T12:53:32.866Z,12.05
2023-03-02T12:58:34.711Z,15.05
2023-03-02T13:03:47.673Z,17.08
2023-03-02T13:08:52.935Z,17.83
2023-03-02T13:13:54.992Z,16.15
2023-03-02T13:19:09.937Z,13.75
2023-03-02T13:24:44.079Z,13.63
2023-03-02T13:29:46.231Z,12.77
2023-03-02T13:34:59.224Z,11.10
2023-03-02T13:40:04.275Z,10.90
2023-03-02T13:45:33.465Z,10.63
2023-03-02T13:50:35.388Z,10.30
2023-03-02T13:55:39.496Z,10.50
2023-03-02T14:00:41.367Z,10.45
2023-03-02T14:05:43.173Z,10.60
2023-03-02T14:10:44.957Z,10.27
2023-03-02T14:15:50.541Z,11.07
2023-03-02T14:20:52.397Z,9.38
2023-03-02T14:25:55.690Z,10.43
2023-03-02T14:30:58.691Z,9.85
2023-03-02T14:36:00.834Z,10.18
2023-03-02T14:41:02.692Z,11.52
2023-03-02T14:46:04.621Z,10.65
2023-03-02T14:51:31.263Z,10.27
2023-03-02T14:56:33.441Z,10.73
2023-03-02T15:01:35.783Z,9.15
2023-03-02T15:06:40.059Z,10.00
2023-03-02T15:11:42.085Z,9.70
2023-03-02T15:16:43.896Z,10.27
2023-03-02T15:21:46.528Z,10.05
2023-03-02T15:26:52.072Z,10.05
2023-03-02T15:31:53.979Z,9.38
2023-03-02T15:36:55.831Z,9.88
2023-03-02T15:41:57.600Z,9.10
2023-03-02T15:47:00.619Z,9.38
2023-03-02T15:52:02.577Z,9.05
2023-03-02T15:57:04.561Z,9.10
2023-03-02T16:02:06.725Z,9.85
2023-03-02T16:07:08.522Z,9.02
2023-03-02T16:12:10.276Z,8.85
2023-03-02T16:17:12.356Z,9.45
2023-03-02T16:22:14.444Z,9.00
2023-03-02T16:27:16.445Z,9.75
2023-03-02T16:32:19.314Z,9.07
2023-03-02T16:37:21.219Z,9.65
2023-03-02T16:42:23.047Z,9.57
2023-03-02T16:47:24.833Z,10.48
2023-03-02T16:52:26.664Z,10.68
2023-03-02T16:57:28.427Z,10.00
2023-03-02T17:02:30.973Z,10.18
2023-03-02T17:07:32.766Z,9.65
2023-03-02T17:12:36.201Z,9.52
2023-03-02T17:17:38.896Z,9.52
2023-03-02T17:22:40.735Z,10.27
2023-03-02T17:27:42.506Z,9.30
2023-03-02T17:32:44.370Z,9.98
2023-03-02T17:37:46.227Z,8.77
2023-03-02T17:42:48.003Z,9.80
2023-03-02T17:47:51.047Z,9.50
2023-03-02T17:52:54.208Z,8.82
2023-03-02T17:57:55.986Z,10.43
2023-03-02T18:02:57.890Z,9.70
2023-03-02T18:07:59.698Z,10.90
2023-03-02T18:13:01.480Z,9.85
2023-03-02T18:18:04.536Z,10.77
2023-03-02T18:23:06.543Z,10.18
2023-03-02T18:28:08.339Z,10.27
2023-03-02T18:33:10.883Z,10.27
2023-03-02T18:38:12.653Z,11.00
2023-03-02T18:43:14.514Z,12.77
2023-03-02T18:48:16.282Z,12.82
2023-03-02T18:53:18.421Z,13.25
2023-03-02T18:58:22.342Z,13.57
2023-03-02T19:03:24.986Z,13.70
2023-03-02T19:08:27.381Z,15.20
2023-03-02T19:13:29.379Z,14.13
2023-03-02T19:18:31.374Z,19.15
2023-03-02T19:23:33.637Z,17.70
2023-03-02T19:28:36.233Z,13.63
2023-03-02T19:33:40.099Z,13.57
2023-03-02T19:38:43.126Z,13.43
2023-03-02T19:43:46.165Z,11.68
2023-03-02T19:48:48.098Z,11.98
2023-03-02T19:53:49.901Z,11.52
2023-03-02T19:58:54.253Z,12.32
2023-03-02T20:03:56.800Z,12.10
2023-03-02T20:09:01.552Z,10.75
2023-03-02T20:14:03.701Z,11.48
2023-03-02T20:19:06.029Z,12.07
2023-03-02T20:24:08.292Z,11.30
2023-03-02T20:29:11.472Z,11.90
2023-03-02T20:34:16.559Z,11.23
2023-03-02T20:39:28.999Z,11.30
2023-03-02T20:44:31.175Z,12.10
2023-03-02T20:49:33.182Z,12.02
2023-03-02T20:54:39.346Z,10.65
2023-03-02T20:59:42.228Z,10.00
2023-03-02T21:04:44.321Z,11.70
2023-03-02T21:09:46.256Z,11.27
2023-03-02T21:14:48.323Z,12.40
2023-03-02T21:19:50.326Z,11.43
2023-03-02T21:24:53.065Z,12.25
2023-03-02T21:29:54.949Z,11.95
2023-03-02T21:34:56.837Z,12.10
2023-03-02T21:39:59.256Z,12.65
2023-03-02T21:45:02.264Z,13.32
2023-03-02T21:50:05.525Z,11.73
2023-03-02T21:55:08.274Z,13.82
2023-03-02T22:00:33.705Z,12.70
2023-03-02T22:05:35.855Z,14.18
2023-03-02T22:10:43.216Z,12.73
2023-03-02T22:15:46.492Z,13.02
2023-03-02T22:20:51.347Z,13.25
2023-03-02T22:25:56.197Z,12.65
2023-03-02T22:31:00.375Z,13.85
2023-03-02T22:36:12.242Z,13.35
2023-03-02T22:41:19.917Z,13.32
2023-03-02T22:46:21.883Z,14.43
2023-03-02T22:51:28.521Z,14.45
2023-03-02T22:56:31.369Z,13.95
2023-03-02T23:01:42.437Z,13.05
2023-03-02T23:06:47.570Z,14.90
2023-03-02T23:11:50.668Z,14.95
2023-03-02T23:17:21.435Z,15.00
2023-03-02T23:27:25.292Z,13.45
2023-03-02T23:32:27.209Z,15.13
2023-03-02T23:37:29.031Z,15.15
2023-03-02T23:42:30.873Z,14.30
2023-03-02T23:47:32.697Z,17.48
2023-03-02T23:52:34.657Z,14.90
2023-03-02T23:57:36.508Z,14.15
